Time;durP1;ratioP1;P1;durP2;ratioP2;P2;SDS_P1;SDS_P2;PMS_P1;PMS_P2;Temp;Humidity;BMP_temperature;BMP_pressure;BME280_temperature;BME280_humidity;BME280_pressure;Samples;Min_cycle;Max_cycle;Signal;HPM_P1;HPM_P2
2023/08/11 00:00:13;;;;;;;8.75;5.75;;;19.00;99.90;;;;;;5051691;28;20464;-74
2023/08/11 00:02:39;;;;;;;8.15;5.82;;;19.00;99.90;;;;;;5054435;28;20025;-74
2023/08/11 00:05:06;;;;;;;8.93;6.03;;;19.00;99.90;;;;;;5055934;28;20025;-74
2023/08/11 00:07:32;;;;;;;7.93;5.10;;;19.00;99.90;;;;;;5055418;28;20024;-73
2023/08/11 00:09:57;;;;;;;7.97;5.60;;;19.00;99.90;;;;;;5055665;28;20033;-73
2023/08/11 00:12:23;;;;;;;10.55;5.60;;;18.90;99.90;;;;;;5055081;28;20023;-73
2023/08/11 00:14:49;;;;;;;9.35;5.82;;;18.90;99.90;;;;;;5054111;28;20056;-73
2023/08/11 00:17:14;;;;;;;6.78;5.60;;;18.90;99.90;;;;;;5046172;28;20395;-73
2023/08/11 00:19:41;;;;;;;7.75;5.20;;;18.90;99.90;;;;;;5052799;28;20524;-74
2023/08/11 00:22:06;;;;;;;8.48;5.45;;;18.80;99.90;;;;;;5051804;28;20184;-73
2023/08/11 00:24:33;;;;;;;8.38;5.50;;;18.90;99.90;;;;;;5052161;28;20044;-73
2023/08/11 00:27:01;;;;;;;8.18;5.10;;;18.80;99.90;;;;;;5051688;28;20021;-73
2023/08/11 00:29:26;;;;;;;7.60;5.28;;;18.80;99.90;;;;;;5053608;28;20051;-73
2023/08/11 00:31:53;;;;;;;8.77;5.50;;;18.80;99.90;;;;;;5052220;28;20029;-73
2023/08/11 00:34:18;;;;;;;6.50;5.43;;;18.80;99.90;;;;;;5047328;28;20075;-73
2023/08/11 00:36:44;;;;;;;8.00;5.30;;;18.70;99.90;;;;;;5041008;28;20029;-73
2023/08/11 00:39:10;;;;;;;9.60;5.60;;;18.70;99.90;;;;;;5049480;28;20060;-73
2023/08/11 00:41:35;;;;;;;9.52;5.75;;;18.70;99.90;;;;;;5043268;28;20056;-73
2023/08/11 00:44:01;;;;;;;10.57;6.00;;;18.70;99.90;;;;;;5050325;28;20128;-73
2023/08/11 00:46:27;;;;;;;10.20;5.80;;;18.70;99.90;;;;;;5044176;28;20071;-73
2023/08/11 00:48:53;;;;;;;8.90;5.80;;;18.70;99.90;;;;;;5052138;28;20021;-73
2023/08/11 00:51:22;;;;;;;6.88;5.68;;;18.70;99.90;;;;;;5056032;28;20035;-74
2023/08/11 00:53:49;;;;;;;7.15;5.95;;;18.70;99.90;;;;;;5048066;28;20120;-74
2023/08/11 00:56:19;;;;;;;9.88;6.28;;;18.60;99.90;;;;;;5054384;28;20456;-74
2023/08/11 00:58:45;;;;;;;9.60;5.95;;;18.60;99.90;;;;;;5051217;28;20059;-74
2023/08/11 01:01:12;;;;;;;10.27;6.03;;;18.60;99.90;;;;;;5040490;28;20045;-73
2023/08/11 01:03:38;;;;;;;9.02;5.45;;;18.60;99.90;;;;;;5042100;28;20019;-74
2023/08/11 01:06:35;;;;;;;7.72;5.85;;;18.50;99.90;;;;;;5043738;28;20026;-74
2023/08/11 01:09:28;;;;;;;8.05;5.75;;;18.50;99.90;;;;;;5053366;28;20041;-74
2023/08/11 01:11:58;;;;;;;11.48;5.80;;;18.50;99.90;;;;;;5040918;28;20029;-74
2023/08/11 01:14:33;;;;;;;9.55;5.68;;;18.40;99.90;;;;;;5051283;28;20025;-74
2023/08/11 01:17:00;;;;;;;7.78;5.80;;;18.40;99.90;;;;;;5044735;28;20126;-74
2023/08/11 01:19:32;;;;;;;8.65;6.25;;;18.40;99.90;;;;;;5047287;28;20033;-74
2023/08/11 01:22:01;;;;;;;11.88;6.03;;;18.40;99.90;;;;;;5050206;28;20020;-74
2023/08/11 01:24:28;;;;;;;7.78;5.68;;;18.40;99.90;;;;;;5051289;28;20029;-74
2023/08/11 01:26:54;;;;;;;8.10;6.03;;;18.40;99.90;;;;;;5042821;28;20349;-74
2023/08/11 01:29:20;;;;;;;8.38;6.22;;;18.30;99.90;;;;;;5040936;28;20417;-74
2023/08/11 01:31:45;;;;;;;7.95;6.20;;;18.30;99.90;;;;;;5046925;28;20036;-74
2023/08/11 01:34:11;;;;;;;7.95;6.03;;;18.30;99.90;;;;;;5042748;28;20099;-73
2023/08/11 01:36:40;;;;;;;7.65;5.90;;;18.30;99.90;;;;;;5047285;28;20140;-74
2023/08/11 01:39:07;;;;;;;9.55;6.22;;;18.30;99.90;;;;;;5042508;28;20056;-73
2023/08/11 01:41:33;;;;;;;11.77;5.68;;;18.30;99.90;;;;;;5040834;28;20049;-74
2023/08/11 01:43:59;;;;;;;9.82;6.40;;;18.30;99.90;;;;;;5051508;28;20070;-74
2023/08/11 01:46:27;;;;;;;11.77;6.22;;;18.30;99.90;;;;;;5046178;28;20472;-74
2023/08/11 01:48:56;;;;;;;11.90;6.10;;;18.30;99.90;;;;;;5052799;28;20283;-73
2023/08/11 01:51:23;;;;;;;9.52;6.15;;;18.30;99.90;;;;;;5052396;28;20029;-74
2023/08/11 01:53:50;;;;;;;10.25;6.25;;;18.30;99.90;;;;;;5052389;28;20080;-73
2023/08/11 01:56:17;;;;;;;9.05;5.70;;;18.30;99.90;;;;;;5052085;28;20022;-73
2023/08/11 01:58:43;;;;;;;9.25;6.13;;;18.30;99.90;;;;;;5048693;28;20052;-73
2023/08/11 02:01:08;;;;;;;9.95;6.15;;;18.30;99.90;;;;;;5052154;28;20029;-73
2023/08/11 02:03:34;;;;;;;8.95;5.63;;;18.20;99.90;;;;;;5050061;28;20123;-74
2023/08/11 02:06:00;;;;;;;11.23;6.07;;;18.20;99.90;;;;;;5050722;28;20078;-73
2023/08/11 02:08:26;;;;;;;7.70;5.93;;;18.20;99.90;;;;;;5039078;28;20112;-73
2023/08/11 02:10:53;;;;;;;13.70;5.88;;;18.20;99.90;;;;;;5052209;28;20027;-73
2023/08/11 02:13:19;;;;;;;11.13;5.80;;;18.10;99.90;;;;;;5053140;28;20062;-73
2023/08/11 02:15:44;;;;;;;7.85;5.43;;;18.10;99.90;;;;;;5049870;28;20111;-74
2023/08/11 02:18:10;;;;;;;7.75;5.88;;;18.10;99.90;;;;;;5043484;28;20549;-73
2023/08/11 02:20:36;;;;;;;8.20;5.28;;;18.10;99.90;;;;;;5047921;28;20554;-73
2023/08/11 02:23:02;;;;;;;11.25;6.10;;;18.00;99.90;;;;;;5042884;28;20053;-73
2023/08/11 02:25:28;;;;;;;9.15;6.00;;;18.00;99.90;;;;;;5050895;28;20719;-73
2023/08/11 02:27:53;;;;;;;8.80;5.60;;;18.00;99.90;;;;;;5047590;28;20021;-73
2023/08/11 02:30:21;;;;;;;7.85;5.90;;;18.00;99.90;;;;;;5051127;28;20102;-73
2023/08/11 02:32:47;;;;;;;8.48;5.43;;;17.90;99.90;;;;;;5051089;28;20051;-74
2023/08/11 02:35:14;;;;;;;10.10;6.43;;;18.00;99.90;;;;;;5048909;28;20134;-73
2023/08/11 02:37:41;;;;;;;8.63;6.13;;;17.90;99.90;;;;;;5051586;28;20036;-73
2023/08/11 02:40:11;;;;;;;10.20;6.03;;;17.90;99.90;;;;;;5044448;28;20029;-73
2023/08/11 02:42:48;;;;;;;9.02;5.93;;;17.90;99.90;;;;;;5045154;28;20029;-73
2023/08/11 02:45:15;;;;;;;9.02;6.15;;;17.90;99.90;;;;;;5050875;28;20041;-73
2023/08/11 02:47:40;;;;;;;9.02;5.95;;;17.80;99.90;;;;;;5044509;28;20104;-73
2023/08/11 02:50:08;;;;;;;8.98;5.43;;;17.80;99.90;;;;;;5040554;28;20112;-73
2023/08/11 02:52:34;;;;;;;8.65;6.03;;;17.80;99.90;;;;;;5051585;28;20033;-73
2023/08/11 02:55:01;;;;;;;10.88;5.82;;;17.80;99.90;;;;;;5043749;28;20028;-73
2023/08/11 02:57:26;;;;;;;11.15;6.00;;;17.80;99.90;;;;;;5050295;28;20268;-73
2023/08/11 02:59:52;;;;;;;10.60;5.38;;;17.80;99.90;;;;;;5051167;28;20056;-73
2023/08/11 03:02:17;;;;;;;8.60;6.05;;;17.70;99.90;;;;;;5047107;28;20025;-73
2023/08/11 03:04:43;;;;;;;9.68;6.05;;;17.70;99.90;;;;;;5040954;28;20021;-73
2023/08/11 03:07:09;;;;;;;6.53;5.28;;;17.70;99.90;;;;;;5049814;28;20032;-73
2023/08/11 03:09:36;;;;;;;8.70;6.70;;;17.70;99.90;;;;;;5044823;28;20430;-73
2023/08/11 03:12:01;;;;;;;7.85;5.95;;;17.70;99.90;;;;;;5042714;28;20033;-73
2023/08/11 03:14:27;;;;;;;7.75;5.90;;;17.70;99.90;;;;;;5048512;28;20025;-73
2023/08/11 03:16:53;;;;;;;8.32;6.13;;;17.60;99.90;;;;;;5050225;28;20113;-73
2023/08/11 03:19:19;;;;;;;8.75;6.20;;;17.70;99.90;;;;;;5051702;28;20532;-75
2023/08/11 03:21:45;;;;;;;6.95;5.40;;;17.60;99.90;;;;;;5051649;28;20017;-73
2023/08/11 03:24:10;;;;;;;8.95;5.85;;;17.60;99.90;;;;;;5051663;28;20033;-73
2023/08/11 03:26:36;;;;;;;8.35;5.65;;;17.60;99.90;;;;;;5042527;28;20029;-73
2023/08/11 03:29:02;;;;;;;10.98;6.03;;;17.60;99.90;;;;;;5040819;28;20047;-73
2023/08/11 03:31:28;;;;;;;10.07;5.95;;;17.60;99.90;;;;;;5047888;28;20030;-73
2023/08/11 03:33:54;;;;;;;8.32;5.85;;;17.60;99.90;;;;;;5042722;28;20121;-73
2023/08/11 03:36:20;;;;;;;9.77;6.05;;;17.60;99.90;;;;;;5051408;28;20056;-73
2023/08/11 03:38:46;;;;;;;10.85;5.85;;;17.50;99.90;;;;;;5053654;28;20080;-73
2023/08/11 03:41:12;;;;;;;7.53;5.65;;;17.50;99.90;;;;;;5056623;28;20029;-73
2023/08/11 03:43:37;;;;;;;10.07;5.93;;;17.50;99.90;;;;;;5051018;28;20017;-73
2023/08/11 03:46:03;;;;;;;9.38;6.20;;;17.50;99.90;;;;;;5047307;28;20083;-73
2023/08/11 03:48:29;;;;;;;10.48;6.20;;;17.50;99.90;;;;;;5048204;28;20509;-74
2023/08/11 03:51:01;;;;;;;9.95;6.72;;;17.50;99.90;;;;;;5055381;28;20100;-74
2023/08/11 03:53:28;;;;;;;10.15;6.55;;;17.40;99.90;;;;;;5055726;28;20124;-74
2023/08/11 03:55:54;;;;;;;10.32;6.13;;;17.40;99.90;;;;;;5055865;28;20469;-74
2023/08/11 03:58:21;;;;;;;14.45;7.57;;;17.40;99.90;;;;;;5055700;28;20048;-74
2023/08/11 04:00:50;;;;;;;10.70;6.90;;;17.40;99.90;;;;;;5055523;28;20028;-74
2023/08/11 04:03:16;;;;;;;9.35;6.53;;;17.40;99.90;;;;;;5036334;28;20059;-74
2023/08/11 04:05:42;;;;;;;11.50;7.07;;;17.40;99.90;;;;;;5037584;28;20057;-74
2023/08/11 04:08:07;;;;;;;11.43;7.25;;;17.40;99.90;;;;;;5050196;28;20040;-74
2023/08/11 04:10:37;;;;;;;12.60;7.13;;;17.40;99.90;;;;;;5045113;28;20025;-74
2023/08/11 04:13:04;;;;;;;11.40;7.53;;;17.40;99.90;;;;;;5045813;28;20037;-74
2023/08/11 04:15:31;;;;;;;11.88;7.38;;;17.40;99.90;;;;;;5039156;28;20453;-74
2023/08/11 04:17:57;;;;;;;12.23;7.53;;;17.40;99.90;;;;;;5052187;28;20027;-74
2023/08/11 04:20:23;;;;;;;13.18;8.13;;;17.40;99.90;;;;;;5048130;28;20025;-74
2023/08/11 04:22:48;;;;;;;14.38;8.38;;;17.40;99.90;;;;;;5049587;28;20090;-74
2023/08/11 04:25:14;;;;;;;13.50;7.65;;;17.40;99.90;;;;;;5057249;28;20044;-75
2023/08/11 04:27:40;;;;;;;11.02;7.85;;;17.40;99.90;;;;;;5056072;28;20106;-74
2023/08/11 04:30:08;;;;;;;10.90;7.88;;;17.40;99.90;;;;;;5051888;28;20025;-74
2023/08/11 04:32:33;;;;;;;11.90;8.20;;;17.40;99.90;;;;;;5047929;28;20094;-74
2023/08/11 04:34:59;;;;;;;13.27;8.30;;;17.40;99.90;;;;;;5055620;28;20021;-74
2023/08/11 04:37:25;;;;;;;13.95;8.52;;;17.40;99.90;;;;;;5053758;28;20056;-74
2023/08/11 04:39:51;;;;;;;14.30;8.88;;;17.40;99.90;;;;;;5054879;28;20021;-74
2023/08/11 04:42:17;;;;;;;12.38;8.68;;;17.40;99.90;;;;;;5054762;28;20028;-74
2023/08/11 04:44:43;;;;;;;11.18;8.48;;;17.40;99.90;;;;;;5054743;28;20017;-74
2023/08/11 04:47:08;;;;;;;13.82;8.68;;;17.40;99.90;;;;;;5051673;28;20025;-74
2023/08/11 04:49:35;;;;;;;13.75;8.85;;;17.40;99.90;;;;;;5052643;28;20387;-75
2023/08/11 04:52:01;;;;;;;17.35;9.95;;;17.40;99.90;;;;;;5053678;28;20021;-74
2023/08/11 04:54:27;;;;;;;15.20;9.10;;;17.40;99.90;;;;;;5055032;28;20028;-74
2023/08/11 04:56:53;;;;;;;13.15;8.77;;;17.40;99.90;;;;;;5054801;28;20040;-74
2023/08/11 04:59:18;;;;;;;14.43;9.38;;;17.40;99.90;;;;;;5054627;28;20057;-74
2023/08/11 05:01:44;;;;;;;15.35;9.43;;;17.40;99.90;;;;;;5055073;28;20020;-74
2023/08/11 05:04:10;;;;;;;13.75;9.60;;;17.40;99.90;;;;;;5053814;28;20021;-74
2023/08/11 05:06:36;;;;;;;14.10;9.65;;;17.40;99.90;;;;;;5054723;28;20090;-74
2023/08/11 05:09:02;;;;;;;17.73;10.07;;;17.40;99.90;;;;;;5054163;28;20039;-74
2023/08/11 05:11:29;;;;;;;16.27;9.50;;;17.40;99.90;;;;;;5054009;28;20021;-74
2023/08/11 05:13:55;;;;;;;14.57;10.13;;;17.40;99.90;;;;;;5054439;28;20080;-74
2023/08/11 05:16:21;;;;;;;17.02;9.55;;;17.50;99.90;;;;;;5054741;28;20021;-74
2023/08/11 05:18:47;;;;;;;16.25;10.05;;;17.50;99.90;;;;;;5045530;28;20025;-74
2023/08/11 05:21:13;;;;;;;16.75;10.30;;;17.50;99.90;;;;;;5051562;28;20480;-74
2023/08/11 05:23:39;;;;;;;16.23;10.00;;;17.50;99.90;;;;;;5047047;28;20021;-74
2023/08/11 05:26:05;;;;;;;20.17;10.50;;;17.60;99.90;;;;;;5054229;28;20028;-74
2023/08/11 05:28:30;;;;;;;19.88;11.10;;;17.60;99.90;;;;;;5047882;28;20022;-74
2023/08/11 05:30:56;;;;;;;18.15;10.25;;;17.70;99.90;;;;;;5051035;28;20025;-74
2023/08/11 05:33:24;;;;;;;22.98;11.95;;;17.70;99.90;;;;;;5052022;28;20029;-74
2023/08/11 05:35:49;;;;;;;20.95;11.52;;;17.70;99.90;;;;;;5048517;28;20005;-74
2023/08/11 05:38:15;;;;;;;17.42;10.40;;;17.80;99.90;;;;;;5051746;28;20025;-74
2023/08/11 05:40:42;;;;;;;17.58;10.38;;;17.80;99.90;;;;;;5050298;28;20017;-74
2023/08/11 05:43:08;;;;;;;19.08;11.43;;;17.80;99.90;;;;;;5052228;28;20025;-74
2023/08/11 05:45:34;;;;;;;18.70;10.93;;;17.90;99.90;;;;;;5050988;28;20021;-74
2023/08/11 05:47:59;;;;;;;17.48;11.18;;;17.90;99.90;;;;;;5051591;28;20021;-74
2023/08/11 05:50:25;;;;;;;20.88;10.75;;;18.00;99.90;;;;;;5036709;28;20017;-74
2023/08/11 05:52:51;;;;;;;23.38;11.50;;;18.00;99.90;;;;;;5050812;28;20078;-74
2023/08/11 05:55:17;;;;;;;20.92;11.38;;;18.10;99.90;;;;;;5050868;28;20017;-74
2023/08/11 05:57:42;;;;;;;22.38;11.25;;;18.10;99.90;;;;;;5049291;28;20048;-74
2023/08/11 06:00:09;;;;;;;23.55;11.23;;;18.20;99.90;;;;;;5049739;28;20060;-74
2023/08/11 06:02:34;;;;;;;19.80;10.82;;;18.30;99.90;;;;;;5049329;28;20075;-74
2023/08/11 06:05:00;;;;;;;20.60;11.15;;;18.30;99.90;;;;;;5050929;28;20107;-74
2023/08/11 06:07:26;;;;;;;24.17;10.93;;;18.40;99.90;;;;;;5050844;28;20487;-74
2023/08/11 06:09:51;;;;;;;20.27;11.10;;;18.50;99.90;;;;;;5050824;28;20434;-74
2023/08/11 06:12:17;;;;;;;20.13;11.27;;;18.50;99.90;;;;;;5051218;28;20471;-74
2023/08/11 06:14:43;;;;;;;19.38;11.00;;;18.60;99.90;;;;;;5049489;28;20044;-74
2023/08/11 06:17:08;;;;;;;20.42;10.38;;;18.70;99.90;;;;;;5050074;28;20017;-74
2023/08/11 06:19:34;;;;;;;21.23;11.35;;;18.70;99.90;;;;;;5048893;28;20063;-74
2023/08/11 06:22:00;;;;;;;20.58;11.43;;;18.70;99.90;;;;;;5039977;28;20585;-74
2023/08/11 06:24:25;;;;;;;21.83;11.10;;;18.80;99.90;;;;;;5040061;28;20032;-74
2023/08/11 06:26:54;;;;;;;17.35;10.73;;;18.80;99.90;;;;;;5036132;28;20025;-74
2023/08/11 06:29:20;;;;;;;20.17;10.43;;;18.90;99.90;;;;;;5045876;28;20036;-73
2023/08/11 06:31:46;;;;;;;18.20;10.63;;;18.90;99.90;;;;;;5047334;28;20048;-73
2023/08/11 06:34:12;;;;;;;19.92;10.65;;;19.00;99.90;;;;;;5045784;28;20056;-73
2023/08/11 06:36:38;;;;;;;19.85;10.52;;;19.10;99.90;;;;;;5036427;28;20060;-73
2023/08/11 06:39:04;;;;;;;19.00;10.30;;;19.10;99.90;;;;;;5040779;28;20490;-73
2023/08/11 06:41:29;;;;;;;17.00;9.90;;;19.10;99.90;;;;;;5050163;28;20060;-73
2023/08/11 06:43:56;;;;;;;16.95;10.10;;;19.20;99.90;;;;;;5039481;28;20044;-73
2023/08/11 06:46:22;;;;;;;15.95;10.00;;;19.30;99.90;;;;;;5040154;28;20025;-73
2023/08/11 06:48:48;;;;;;;23.42;10.43;;;19.30;99.90;;;;;;5047084;28;20100;-73
2023/08/11 06:51:14;;;;;;;16.85;9.55;;;19.30;99.90;;;;;;5048713;28;20021;-73
2023/08/11 06:53:39;;;;;;;19.83;10.00;;;19.40;99.90;;;;;;5050307;28;20057;-73
2023/08/11 06:56:05;;;;;;;18.00;10.65;;;19.50;99.90;;;;;;5050056;28;20420;-73
2023/08/11 06:58:30;;;;;;;21.65;9.45;;;19.50;99.90;;;;;;5049942;28;20075;-73
2023/08/11 07:00:56;;;;;;;17.85;9.15;;;19.60;99.90;;;;;;5050133;28;20021;-73
2023/08/11 07:03:22;;;;;;;17.45;10.07;;;19.70;99.90;;;;;;5050107;28;20013;-73
2023/08/11 07:05:51;;;;;;;19.30;9.02;;;19.80;99.90;;;;;;5050110;28;20032;-73
2023/08/11 07:08:17;;;;;;;20.05;9.25;;;19.80;99.90;;;;;;5048349;28;20017;-73
2023/08/11 07:10:43;;;;;;;16.00;9.50;;;20.00;99.90;;;;;;5040436;28;20079;-73
2023/08/11 07:13:09;;;;;;;14.93;8.85;;;20.10;99.90;;;;;;5047459;28;20026;-75
2023/08/11 07:15:34;;;;;;;18.58;9.50;;;20.20;99.90;;;;;;5058596;28;20538;-79
2023/08/11 07:18:00;;;;;;;19.92;10.05;;;20.20;99.90;;;;;;5057168;28;20017;-79
2023/08/11 07:20:26;;;;;;;15.45;8.65;;;20.40;99.90;;;;;;5052927;28;20031;-78
2023/08/11 07:22:52;;;;;;;18.45;9.07;;;20.50;99.90;;;;;;5054746;28;20244;-78
2023/08/11 07:25:17;;;;;;;19.23;8.80;;;20.60;99.90;;;;;;5053746;28;20100;-78
2023/08/11 07:27:43;;;;;;;19.00;9.60;;;20.80;99.90;;;;;;5056819;28;20424;-79
2023/08/11 07:30:09;;;;;;;15.75;8.32;;;20.90;99.90;;;;;;5058399;28;20029;-79
2023/08/11 07:32:35;;;;;;;16.90;8.30;;;21.00;99.90;;;;;;5051977;28;20036;-77
2023/08/11 07:35:01;;;;;;;16.67;8.50;;;21.10;99.90;;;;;;5047850;28;20013;-76
2023/08/11 07:37:26;;;;;;;17.42;8.45;;;21.30;99.90;;;;;;5049078;28;20017;-76
2023/08/11 07:39:52;;;;;;;14.18;7.95;;;21.40;99.90;;;;;;5049165;28;20583;-76
2023/08/11 07:42:18;;;;;;;13.18;7.72;;;21.50;99.90;;;;;;5049497;28;20017;-74
2023/08/11 07:44:43;;;;;;;12.88;7.18;;;21.70;99.90;;;;;;5045335;28;20025;-76
2023/08/11 07:47:09;;;;;;;18.13;7.28;;;21.80;99.90;;;;;;5048511;28;20021;-77
2023/08/11 07:49:35;;;;;;;20.88;6.90;;;22.10;99.90;;;;;;5049205;28;20478;-77
2023/08/11 07:52:01;;;;;;;11.27;6.05;;;22.30;99.90;;;;;;5049546;28;20018;-77
2023/08/11 07:54:26;;;;;;;11.10;6.40;;;22.40;99.90;;;;;;5049636;28;20424;-77
2023/08/11 07:56:52;;;;;;;12.18;6.57;;;22.70;99.90;;;;;;5049193;28;20020;-75
2023/08/11 07:59:18;;;;;;;14.25;6.50;;;22.80;99.90;;;;;;5048592;28;20484;-75
2023/08/11 08:01:43;;;;;;;12.05;5.88;;;23.00;99.90;;;;;;5047962;28;20025;-75
2023/08/11 08:04:10;;;;;;;9.60;5.40;;;23.20;99.90;;;;;;5048215;28;20083;-75
2023/08/11 08:06:43;;;;;;;9.93;5.00;;;23.30;99.90;;;;;;5049013;28;20014;-74
2023/08/11 08:09:11;;;;;;;13.43;5.28;;;23.50;99.90;;;;;;5047857;28;20119;-74
2023/08/11 08:11:43;;;;;;;7.72;4.95;;;23.50;99.90;;;;;;5048973;28;20100;-75
2023/08/11 08:14:10;;;;;;;10.07;5.40;;;23.60;99.90;;;;;;5037295;28;20026;-76
2023/08/11 08:16:36;;;;;;;10.45;5.55;;;23.70;99.90;;;;;;5044692;28;20400;-75
2023/08/11 08:19:03;;;;;;;8.98;5.18;;;23.70;99.90;;;;;;5049009;28;20017;-75
2023/08/11 08:21:29;;;;;;;9.50;5.32;;;23.70;99.90;;;;;;5049044;28;20070;-75
2023/08/11 08:23:54;;;;;;;13.25;6.05;;;23.70;99.90;;;;;;5044259;28;20021;-75
2023/08/11 08:26:20;;;;;;;10.73;5.05;;;23.80;99.90;;;;;;5050865;28;20024;-75
2023/08/11 08:28:46;;;;;;;11.30;5.47;;;23.90;99.90;;;;;;5052689;28;20454;-75
2023/08/11 08:31:11;;;;;;;13.38;5.82;;;24.10;99.90;;;;;;5050938;28;20143;-75
2023/08/11 08:33:37;;;;;;;10.85;5.85;;;24.20;99.90;;;;;;5051950;28;20388;-75
2023/08/11 08:36:03;;;;;;;13.85;6.10;;;24.30;99.90;;;;;;5045206;28;20033;-74
2023/08/11 08:38:28;;;;;;;11.73;5.65;;;24.30;99.90;;;;;;5062724;28;20484;-81
2023/08/11 08:40:54;;;;;;;11.07;5.50;;;24.30;99.90;;;;;;5052089;28;20167;-76
2023/08/11 08:43:20;;;;;;;9.88;5.80;;;24.20;99.90;;;;;;5053079;28;20021;-75
2023/08/11 08:45:47;;;;;;;11.20;5.75;;;24.30;99.90;;;;;;5052280;28;20021;-76
2023/08/11 08:48:22;;;;;;;11.55;5.80;;;24.40;99.90;;;;;;5052097;28;20047;-76
2023/08/11 08:50:47;;;;;;;8.77;5.75;;;24.60;99.90;;;;;;5049283;28;20561;-76
2023/08/11 08:53:13;;;;;;;10.68;6.55;;;24.80;99.90;;;;;;5053031;28;20139;-77
2023/08/11 08:55:40;;;;;;;8.95;5.35;;;24.90;99.90;;;;;;5051119;28;20409;-75
2023/08/11 08:58:09;;;;;;;8.98;5.30;;;24.90;99.90;;;;;;5053414;28;20029;-76
2023/08/11 09:00:34;;;;;;;11.38;5.38;;;24.90;99.90;;;;;;5055016;28;20556;-75
2023/08/11 09:03:01;;;;;;;17.02;5.80;;;25.00;99.90;;;;;;5052969;28;20104;-75
2023/08/11 09:05:27;;;;;;;10.82;6.03;;;25.10;99.90;;;;;;5051044;28;20025;-75
2023/08/11 09:07:53;;;;;;;11.25;6.15;;;25.20;99.90;;;;;;5051725;28;20016;-75
2023/08/11 09:10:19;;;;;;;8.23;5.55;;;25.30;99.90;;;;;;5050763;28;20021;-75
2023/08/11 09:12:44;;;;;;;12.48;6.07;;;25.50;99.90;;;;;;5048471;28;20551;-76
2023/08/11 09:15:11;;;;;;;12.38;5.50;;;25.70;99.90;;;;;;5054000;28;20071;-77
2023/08/11 09:17:38;;;;;;;10.95;5.57;;;25.80;99.90;;;;;;5053504;28;20527;-75
2023/08/11 09:20:07;;;;;;;10.43;5.63;;;26.00;99.90;;;;;;5049308;28;20380;-77
2023/08/11 09:22:36;;;;;;;10.95;5.93;;;26.20;99.90;;;;;;5050860;28;20028;-78
2023/08/11 09:25:03;;;;;;;11.40;5.53;;;26.40;99.90;;;;;;5052344;28;20045;-77
2023/08/11 09:27:30;;;;;;;11.77;5.75;;;26.60;99.90;;;;;;5050583;28;20512;-74
2023/08/11 09:29:57;;;;;;;10.30;6.05;;;26.80;99.90;;;;;;5051664;28;20021;-76
2023/08/11 09:32:23;;;;;;;10.85;5.22;;;27.00;99.90;;;;;;5049876;28;20024;-77
2023/08/11 09:34:49;;;;;;;12.60;6.35;;;27.20;99.90;;;;;;5052764;28;20020;-77
2023/08/11 09:37:14;;;;;;;14.77;6.03;;;27.40;99.90;;;;;;5052056;28;20104;-78
2023/08/11 09:39:42;;;;;;;13.20;5.47;;;27.50;99.90;;;;;;5051793;28;20017;-79
2023/08/11 09:42:08;;;;;;;8.13;5.03;;;27.60;99.90;;;;;;5052082;28;20017;-77
2023/08/11 09:44:34;;;;;;;10.65;5.13;;;27.70;99.90;;;;;;5051514;28;20029;-77
2023/08/11 09:47:03;;;;;;;16.58;5.40;;;27.80;99.90;;;;;;5052366;28;20017;-78
2023/08/11 09:49:29;;;;;;;7.82;4.38;;;27.90;99.90;;;;;;5052726;28;20033;-77
2023/08/11 09:51:58;;;;;;;8.50;4.70;;;28.10;99.90;;;;;;5052724;28;20021;-78
2023/08/11 09:54:24;;;;;;;12.20;4.40;;;28.10;99.90;;;;;;5053462;28;20029;-78
2023/08/11 09:56:51;;;;;;;7.95;4.55;;;28.10;99.90;;;;;;5055208;28;20035;-78
2023/08/11 09:59:20;;;;;;;11.50;4.70;;;28.10;99.90;;;;;;5053365;28;20075;-78
2023/08/11 10:01:47;;;;;;;9.50;5.00;;;28.20;99.90;;;;;;5040477;28;20367;-78
2023/08/11 10:04:22;;;;;;;10.50;5.13;;;28.40;99.90;;;;;;5051838;28;20021;-78
2023/08/11 10:06:50;;;;;;;12.35;5.20;;;28.50;99.90;;;;;;5047874;28;20099;-76
2023/08/11 10:09:20;;;;;;;11.23;5.15;;;28.60;99.90;;;;;;5054558;28;20305;-78
2023/08/11 10:11:46;;;;;;;10.23;4.80;;;28.60;99.90;;;;;;5056842;28;20017;-78
2023/08/11 10:14:16;;;;;;;8.18;4.60;;;28.70;99.90;;;;;;5046421;28;20032;-78
2023/08/11 10:16:44;;;;;;;9.05;4.70;;;28.80;99.90;;;;;;5043118;28;20405;-78
2023/08/11 10:19:11;;;;;;;9.88;4.55;;;28.90;99.90;;;;;;5044035;28;20092;-78
2023/08/11 10:21:37;;;;;;;8.75;4.45;;;28.90;99.90;;;;;;5053944;28;20424;-78
2023/08/11 10:24:03;;;;;;;12.15;4.65;;;28.90;99.90;;;;;;5054180;28;20068;-79
2023/08/11 10:26:31;;;;;;;6.72;4.75;;;28.90;99.90;;;;;;5054725;28;20054;-79
2023/08/11 10:28:57;;;;;;;14.05;5.85;;;28.90;99.90;;;;;;5051162;28;20025;-78
2023/08/11 10:31:26;;;;;;;10.90;4.93;;;28.90;99.90;;;;;;5048390;28;20056;-78
2023/08/11 10:33:53;;;;;;;12.40;6.13;;;29.00;99.90;;;;;;5052873;28;20030;-80
2023/08/11 10:36:23;;;;;;;13.23;5.75;;;29.10;99.90;;;;;;5046632;28;20033;-79
2023/08/11 10:39:21;;;;;;;9.68;5.65;;;29.10;99.90;;;;;;5057959;28;20049;-80
2023/08/11 10:41:48;;;;;;;6.85;5.43;;;29.20;99.90;;;;;;5056342;28;20029;-78
2023/08/11 10:44:19;;;;;;;9.38;4.45;;;29.20;99.90;;;;;;5053810;28;20033;-79
2023/08/11 10:46:46;;;;;;;9.75;5.82;;;29.20;99.90;;;;;;5052954;28;20033;-77
2023/08/11 10:49:15;;;;;;;12.50;6.18;;;29.00;99.80;;;;;;5058259;28;20035;-80
2023/08/11 10:51:43;;;;;;;13.02;6.05;;;28.90;99.90;;;;;;5060115;28;20033;-76
2023/08/11 10:54:09;;;;;;;12.18;5.60;;;28.70;99.90;;;;;;5056462;28;20582;-77
2023/08/11 10:56:43;;;;;;;15.85;6.25;;;28.60;99.90;;;;;;5059355;28;20116;-82
2023/08/11 10:59:16;;;;;;;9.57;5.85;;;28.50;99.90;;;;;;5061787;28;20048;-81
2023/08/11 11:01:45;;;;;;;8.15;5.68;;;28.40;99.90;;;;;;5049501;28;20543;-79
2023/08/11 11:04:12;;;;;;;9.93;5.60;;;28.30;99.90;;;;;;5050741;28;20518;-81
2023/08/11 11:06:39;;;;;;;8.50;5.22;;;28.40;99.90;;;;;;5062763;28;20013;-82
2023/08/11 11:09:06;;;;;;;8.20;5.43;;;28.40;99.90;;;;;;5059853;28;20117;-82
2023/08/11 11:11:32;;;;;;;7.82;4.30;;;28.40;99.90;;;;;;5060780;28;20032;-82
2023/08/11 11:13:59;;;;;;;9.23;3.92;;;28.30;99.90;;;;;;5054161;28;20032;-80
2023/08/11 11:16:24;;;;;;;8.57;4.75;;;28.20;99.90;;;;;;5068088;28;20021;-81
2023/08/11 11:18:51;;;;;;;8.45;4.32;;;28.30;99.90;;;;;;5061212;28;20108;-81
2023/08/11 11:21:20;;;;;;;7.70;5.35;;;28.20;99.90;;;;;;5068035;28;20039;-83
2023/08/11 11:23:50;;;;;;;9.35;5.35;;;28.20;99.90;;;;;;5069449;28;20021;-82
2023/08/11 11:26:21;;;;;;;7.78;5.22;;;28.00;99.90;;;;;;5067631;28;20092;-83
2023/08/11 11:28:47;;;;;;;8.38;4.85;;;28.00;99.90;;;;;;5065741;28;20157;-81
2023/08/11 11:31:15;;;;;;;9.13;4.85;;;28.10;99.90;;;;;;5064912;28;20059;-81
2023/08/11 11:33:41;;;;;;;6.97;4.45;;;28.10;99.90;;;;;;5064368;28;20045;-82
2023/08/11 11:36:07;;;;;;;9.63;5.15;;;28.20;99.90;;;;;;5062400;28;20021;-81
2023/08/11 11:38:33;;;;;;;9.82;5.10;;;28.30;99.90;;;;;;5062838;28;20051;-81
2023/08/11 11:40:59;;;;;;;9.57;4.28;;;28.30;99.90;;;;;;5067047;28;20032;-82
2023/08/11 11:43:25;;;;;;;13.35;4.60;;;28.30;99.90;;;;;;5067987;28;20027;-82
2023/08/11 11:45:52;;;;;;;10.32;4.80;;;28.30;99.90;;;;;;5063571;28;20036;-81
2023/08/11 11:48:20;;;;;;;15.88;4.88;;;28.30;99.90;;;;;;5065657;28;20021;-82
2023/08/11 11:50:46;;;;;;;12.48;3.75;;;28.40;99.90;;;;;;5064026;28;20025;-82
2023/08/11 11:53:12;;;;;;;12.18;3.50;;;28.40;99.90;;;;;;5058328;28;20025;-81
2023/08/11 11:55:45;;;;;;;12.93;3.20;;;28.50;99.90;;;;;;5062584;28;20551;-80
2023/08/11 11:58:17;;;;;;;13.82;3.83;;;28.60;99.90;;;;;;5065659;28;20065;-82
2023/08/11 12:00:46;;;;;;;10.35;3.10;;;28.70;99.90;;;;;;5067117;28;20048;-82
2023/08/11 12:03:12;;;;;;;11.90;2.80;;;28.70;99.90;;;;;;5068885;28;20076;-81
2023/08/11 12:05:38;;;;;;;12.38;3.00;;;28.70;99.90;;;;;;5066497;28;20040;-82
2023/08/11 12:08:23;;;;;;;8.70;2.65;;;28.60;99.90;;;;;;5069584;28;20079;-80
2023/08/11 12:10:49;;;;;;;7.13;2.55;;;28.50;99.90;;;;;;5066936;28;20013;-79
2023/08/11 12:13:16;;;;;;;9.05;2.42;;;28.30;99.90;;;;;;5059568;28;20033;-79
2023/08/11 12:15:42;;;;;;;9.43;2.58;;;28.20;99.90;;;;;;5068196;28;20081;-78
2023/08/11 12:18:08;;;;;;;8.60;1.98;;;28.10;99.90;;;;;;5062700;28;20047;-79
2023/08/11 12:20:36;;;;;;;5.72;1.63;;;28.00;99.90;;;;;;5069663;28;20062;-80
2023/08/11 12:23:02;;;;;;;5.95;1.95;;;27.80;99.90;;;;;;5068849;28;20053;-80
2023/08/11 12:25:28;;;;;;;10.23;1.85;;;27.50;99.90;;;;;;5068241;28;20036;-78
2023/08/11 12:27:53;;;;;;;8.23;1.80;;;27.40;99.90;;;;;;5058521;28;20026;-78
2023/08/11 12:30:19;;;;;;;9.32;2.03;;;27.30;99.90;;;;;;5063664;28;20024;-78
2023/08/11 12:32:45;;;;;;;8.57;2.13;;;27.30;99.90;;;;;;5061282;28;20056;-79
2023/08/11 12:35:11;;;;;;;11.15;2.38;;;27.20;99.90;;;;;;5069493;28;20013;-78
2023/08/11 12:37:37;;;;;;;8.00;2.00;;;27.10;99.90;;;;;;5062898;28;20046;-79